Burlington, Canada
Current Conditions -  °F | °C
As of 1:00 AM on Monday 22 Dec 2014 (Local Time) from CYHM Reporting Station
Overcast Overcast  
Wind Chill: 22°   Ceiling: 2100
Heat Index: 28°   Visibility: 15mi
Dew Point: 23°   Wind: 6mph
Humidity: 80%   Direction: 110°ESE
Pressure: 30.24"   Gusts: NA
Location:  43.33°N, 79.8°W
Report Text: CYHM 220600Z 11005KT 15SM OVC021 M02/M05 A3024 RMK SC8 SLP250
Loading
Personal Weather Stations






























Interactive Weather Map New forecast layout! Learn more

10-Day Weather Forecast

Advertisements
Track Severe Weather on mobile